Latest Weather Observations for Ben Nevis

IDV60801

Issued at 11:02 pm EST Monday 31 August 2015 (issued every 30 minutes, with the page automatically refreshed every 10 minutes)

About weather observations | Map of weather stations | Latest weather observations for VIC | Other Formats
Station Details ID: 079101 Name: BEN NEVIS Lat: -37.23 Lon: 143.20 Height: 875.0 m
Data from the previous 72 hours. | See also: Recent months at Ben Nevis
Date/Time
EST
Temp
°C
App
Temp
°C
Dew
Point
Rel
Hum
%
Delta-T
°C
Wind Press
QNH
hPa
Press
MSL
hPa
Rain
since 9 am
mm
Dir
 
Spd
km/h
Gust
km/h
Spd
kts
Gust
kts
31/11:00pm 2.0 -2.4 0.1 87 0.7 SE 13 19 7 10 - - 0.2
31/10:30pm 2.0 -2.4 0.2 88 0.7 SE 13 17 7 9 - - 0.2
31/10:00pm 1.9 -2.2 0.1 88 0.7 SE 11 13 6 7 - - 0.2
31/09:30pm 1.5 -1.9 -0.3 88 0.7 SE 7 7 4 4 - - 0.2
31/09:00pm 1.6 -0.7 0.3 91 0.5 SE 2 9 1 5 - - 0.2
31/08:30pm 1.7 -2.3 0.2 90 0.6 SE 11 15 6 8 - - 0.2
31/08:00pm 1.7 -1.5 0.7 93 0.4 SSE 7 9 4 5 - - 0.2
31/07:30pm 1.4 -2.2 0.5 94 0.4 SSE 9 11 5 6 - - 0.2
31/07:00pm 1.7 -2.6 0.7 93 0.4 SSE 13 19 7 10 - - 0.2
31/06:30pm 2.0 -2.0 0.7 91 0.5 SSE 11 17 6 9 - - 0.2
31/06:00pm 2.7 -2.0 0.9 88 0.7 S 15 22 8 12 - - 0.0
31/05:30pm 3.8 -0.8 1.4 84 1.0 SSW 15 20 8 11 - - 0.0
31/05:00pm 3.9 0.5 1.6 85 1.0 S 9 15 5 8 - - 0.0
31/04:30pm 4.4 0.6 1.8 83 1.1 S 11 19 6 10 - - 0.0
31/04:00pm 5.4 2.1 2.6 82 1.2 SW 9 19 5 10 - - 0.0
31/03:30pm 4.9 0.7 1.9 81 1.3 S 13 20 7 11 - - 0.0
31/03:00pm 4.8 0.8 2.7 86 0.9 SSW 13 22 7 12 - - 0.0
31/02:30pm 5.0 1.3 2.4 83 1.1 SSW 11 19 6 10 - - 0.0
31/02:00pm 4.9 0.4 2.3 83 1.1 SSW 15 24 8 13 - - 0.0
31/01:30pm 4.9 0.8 2.4 84 1.1 S 13 20 7 11 - - 0.0
31/01:00pm 5.1 1.1 2.6 84 1.1 SSW 13 19 7 10 - - 0.0
31/12:30pm 4.6 1.0 2.8 88 0.8 S 11 17 6 9 - - 0.0
31/12:00pm 3.9 0.3 3.2 95 0.3 S 11 19 6 10 - - 0.0
31/11:30am 3.6 0.5 3.5 99 0.0 SSE 9 15 5 8 - - 0.0
31/11:00am 2.7 -0.6 2.6 99 0.0 S 9 17 5 9 - - 0.0
31/10:30am 2.7 -0.6 2.6 99 0.0 S 9 17 5 9 - - 0.0
31/10:00am 2.4 -0.6 2.3 99 0.0 SSW 7 15 4 8 - - 0.0
31/09:30am 2.0 -1.0 1.9 99 0.0 S 7 13 4 7 - - 0.0
31/09:00am 1.7 -1.7 1.6 99 0.0 S 9 15 5 8 - - 0.2
31/08:30am 1.0 -2.9 0.9 99 0.0 S 11 20 6 11 - - 0.2
31/08:00am 0.9 -3.4 0.8 99 0.0 S 13 22 7 12 - - 0.2
31/07:30am 0.4 -4.8 0.3 99 0.0 S 17 28 9 15 - - 0.2
31/07:00am 0.2 -4.2 0.1 99 0.0 S 13 26 7 14 - - 0.2
31/06:30am 0.0 -5.6 -0.1 99 0.0 SSW 19 28 10 15 - - 0.2
31/06:00am -0.1 -4.2 -0.2 99 0.0 SW 11 17 6 9 - - 0.2
31/05:30am -0.1 -4.6 -0.2 99 0.0 SSW 13 20 7 11 - - 0.2
31/05:00am 0.2 -4.2 0.1 99 0.0 S 13 24 7 13 - - 0.2
31/04:30am 0.1 -4.7 0.0 99 0.0 S 15 26 8 14 - - 0.2
31/04:00am 0.1 -4.7 0.0 99 0.0 SSW 15 22 8 12 - - 0.2
31/03:30am 0.2 -4.6 0.1 99 0.0 S 15 22 8 12 - - 0.2
31/03:00am 0.3 -4.9 0.2 99 0.0 S 17 26 9 14 - - 0.2
31/02:30am 0.2 -4.2 0.1 99 0.0 S 13 20 7 11 - - 0.2
31/02:00am 0.4 -3.6 0.3 99 0.0 SSE 11 17 6 9 - - 0.2
31/01:30am 0.3 -3.4 0.2 99 0.0 SSW 9 13 5 7 - - 0.2
31/01:00am 0.5 -3.5 0.4 99 0.0 S 11 15 6 8 - - 0.2
31/12:30am 0.8 -2.8 0.7 99 0.0 S 9 15 5 8 - - 0.2
31/12:00am 1.1 -3.6 1.0 99 0.0 SSE 15 20 8 11 - - 0.2
 
Date/Time
EST
Temp
°C
App
Temp
°C
Dew
Point
Rel
Hum
%
Delta-T
°C
Wind Press
QNH
hPa
Press
MSL
hPa
Rain
since 9 am
mm
Dir
 
Spd
km/h
Gust
km/h
Spd
kts
Gust
kts
30/11:30pm 1.1 -3.6 1.0 99 0.0 S 15 24 8 13 - - 0.2
30/11:00pm 1.1 -3.6 1.0 99 0.0 S 15 22 8 12 - - 0.2
30/10:30pm 1.3 -3.8 1.0 98 0.1 SSW 17 26 9 14 - - 0.2
30/10:00pm 1.5 -4.1 1.1 97 0.2 S 20 32 11 17 - - 0.2
30/09:30pm 1.6 -4.8 1.0 96 0.2 S 24 35 13 19 - - 0.2
30/09:00pm 1.8 -2.9 1.2 96 0.2 S 15 28 8 15 - - 0.2
30/08:30pm 2.2 -2.8 1.6 96 0.2 S 17 28 9 15 - - 0.2
30/08:00pm 2.6 -1.5 2.0 96 0.2 S 13 24 7 13 - - 0.2
30/07:30pm 3.0 -1.5 2.4 96 0.3 S 15 24 8 13 - - 0.2
30/07:00pm 3.2 -1.2 2.5 95 0.3 S 15 28 8 15 - - 0.2
30/06:30pm 3.1 -1.0 2.1 93 0.4 S 13 26 7 14 - - 0.2
30/06:00pm 3.3 -0.1 2.1 92 0.5 S 9 15 5 8 - - 0.2
30/05:30pm 3.8 -0.6 2.8 93 0.4 S 15 26 8 14 - - 0.2
30/05:00pm 4.2 -0.3 2.4 88 0.8 S 15 26 8 14 - - 0.2
30/04:30pm 4.7 1.1 3.2 90 0.7 SSW 11 24 6 13 - - 0.2
30/04:00pm 4.9 0.5 2.9 87 0.9 S 15 33 8 18 - - 0.2
30/03:30pm 4.8 0.9 3.3 90 0.7 S 13 28 7 15 - - 0.2
30/03:00pm 4.8 0.5 3.1 89 0.7 S 15 24 8 13 - - 0.2
30/02:30pm 4.9 -0.9 4.5 97 0.2 SSW 24 37 13 20 - - 0.2
30/02:00pm 4.7 -0.3 4.6 99 0.0 S 20 30 11 16 - - 0.2
30/01:30pm 4.7 -0.1 4.6 99 0.0 SSW 19 28 10 15 - - 0.2
30/01:00pm 4.1 -0.4 4.0 99 0.0 S 17 26 9 14 - - 0.2
30/12:30pm 4.1 -0.1 4.0 99 0.0 S 15 24 8 13 - - 0.2
30/12:00pm 3.8 0.0 3.7 99 0.0 S 13 22 7 12 - - 0.2
30/11:30am 3.7 -0.2 3.6 99 0.0 S 13 24 7 13 - - 0.2
30/11:00am 3.4 -1.7 3.3 99 0.0 S 19 32 10 17 - - 0.2
30/10:30am 3.2 -2.1 3.1 99 0.0 S 20 32 11 17 - - 0.2
30/10:00am 3.0 -2.3 2.9 99 0.0 S 20 37 11 20 - - 0.0
30/09:30am 2.6 -3.5 2.5 99 0.0 S 24 37 13 20 - - 0.0
30/09:00am 2.4 -3.4 2.3 99 0.0 S 22 41 12 22 - - 3.4
30/08:30am 1.9 -5.9 1.8 99 0.0 S 32 50 17 27 - - 3.4
30/08:21am 1.8 -5.2 1.7 99 0.0 S 28 50 15 27 - - 3.4
30/08:00am 2.2 -4.0 2.1 99 0.0 S 24 37 13 20 - - 3.4
30/07:30am 2.2 -4.0 2.1 99 0.0 S 24 33 13 18 - - 3.4
30/07:00am 1.8 -4.9 1.7 99 0.0 SSW 26 46 14 25 - - 3.2
30/06:30am 2.1 -3.8 2.0 99 0.0 S 22 37 12 20 - - 3.0
30/06:00am 2.2 -3.3 2.1 99 0.0 S 20 33 11 18 - - 3.0
30/05:30am 2.1 -3.2 2.0 99 0.0 S 19 35 10 19 - - 2.8
30/05:00am 2.1 -3.2 2.0 99 0.0 S 19 33 10 18 - - 2.6
30/04:30am 2.2 -3.1 2.1 99 0.0 S 19 32 10 17 - - 2.4
30/04:00am 2.3 -3.1 2.2 99 0.0 S 20 39 11 21 - - 2.0
30/03:30am 2.2 -3.3 2.1 99 0.0 S 20 33 11 18 - - 1.8
30/03:00am 2.3 -2.6 2.2 99 0.0 S 17 30 9 16 - - 1.6
30/02:30am 2.3 -2.2 2.2 99 0.0 S 15 30 8 16 - - 1.4
30/02:00am 2.2 -2.7 2.1 99 0.0 S 17 35 9 19 - - 1.2
30/01:30am 2.3 -2.9 2.2 99 0.0 S 19 35 10 19 - - 1.2
30/01:00am 2.5 -2.3 2.4 99 0.0 S 17 33 9 18 - - 1.0
30/12:30am 2.5 -2.7 2.4 99 0.0 S 19 30 10 16 - - 1.0
30/12:00am 2.6 -2.6 2.5 99 0.0 S 19 32 10 17 - - 1.0
 
Date/Time
EST
Temp
°C
App
Temp
°C
Dew
Point
Rel
Hum
%
Delta-T
°C
Wind Press
QNH
hPa
Press
MSL
hPa
Rain
since 9 am
mm
Dir
 
Spd
km/h
Gust
km/h
Spd
kts
Gust
kts
29/11:30pm 2.7 -3.4 2.6 99 0.0 S 24 43 13 23 - - 1.0
29/11:00pm 2.7 -3.8 2.6 99 0.0 S 26 43 14 23 - - 1.0
29/10:30pm 2.7 -4.2 2.6 99 0.0 S 28 43 15 23 - - 0.8
29/10:00pm 2.7 -3.8 2.6 99 0.0 S 26 44 14 24 - - 0.8
29/09:30pm 2.6 -3.9 2.5 99 0.0 S 26 37 14 20 - - 0.6
29/09:00pm 2.6 -3.9 2.5 99 0.0 S 26 39 14 21 - - 0.6
29/08:39pm 2.7 -4.2 2.6 99 0.0 S 28 46 15 25 - - 0.6
29/08:30pm 2.8 -3.7 2.7 99 0.0 S 26 48 14 26 - - 0.4
29/08:23pm 2.8 -4.1 2.7 99 0.0 S 28 48 15 26 - - 0.4
29/08:00pm 2.9 -3.2 2.8 99 0.0 S 24 39 13 21 - - 0.4
29/07:30pm 3.1 -2.2 3.0 99 0.0 S 20 33 11 18 - - 0.0
29/07:00pm 3.0 -3.5 2.9 99 0.0 S 26 43 14 23 - - 0.0
29/06:42pm 3.0 -3.8 2.9 99 0.0 S 28 50 15 27 - - 0.0
29/06:30pm 3.1 -2.6 3.0 99 0.0 S 22 44 12 24 - - 0.0
29/06:00pm 3.1 -3.0 3.0 99 0.0 S 24 41 13 22 - - 0.0
29/05:30pm 3.2 -2.8 3.1 99 0.0 S 24 41 13 22 - - 0.0
29/05:00pm 3.3 -1.8 3.0 98 0.1 SSW 19 35 10 19 - - 0.0
29/04:30pm 3.3 -2.0 2.9 97 0.2 SSW 20 37 11 20 - - 0.0
29/04:00pm 3.9 -1.3 3.3 96 0.3 S 20 39 11 21 - - 0.0
29/03:30pm 4.3 -1.1 2.2 86 0.9 SSW 20 35 11 19 - - 0.0
29/03:00pm 4.5 -0.9 2.4 86 0.9 SSW 20 32 11 17 - - 0.0
29/02:30pm 3.9 -1.3 2.4 90 0.6 SSW 19 32 10 17 - - 0.0
29/02:00pm 4.9 0.0 2.1 82 1.2 SSW 17 37 9 20 - - 0.0
29/01:30pm 4.3 -1.0 2.0 85 1.0 SSW 19 35 10 19 - - 0.0
29/01:00pm 4.1 -1.5 1.3 82 1.2 S 20 32 11 17 - - 0.0
29/12:30pm 4.2 -0.8 1.2 81 1.2 SSE 17 26 9 14 - - 0.0
29/12:00pm 3.2 -3.2 1.1 86 0.9 SSW 24 41 13 22 - - 0.0
29/11:30am 3.6 -2.1 0.3 79 1.3 S 20 39 11 21 - - 0.0
29/11:00am 2.9 -2.8 -0.4 79 1.3 S 19 39 10 21 - - 0.0
29/10:30am 2.3 -3.7 -1.5 76 1.4 S 20 44 11 24 - - 0.0
29/10:00am 2.2 -3.7 -2.1 73 1.6 S 19 35 10 19 - - 0.0
29/09:30am 1.5 -5.0 -2.4 75 1.4 S 22 46 12 25 - - 0.0
29/09:00am 1.0 -6.7 -2.7 76 1.4 S 28 46 15 25 - - 0.8
29/08:41am 0.7 -7.0 -2.9 77 1.3 S 28 50 15 27 - - 0.8
29/08:30am 0.6 -5.9 -2.4 80 1.1 S 22 35 12 19 - - 0.8
29/08:00am 0.3 -5.9 -3.1 78 1.2 S 20 35 11 19 - - 0.8
29/07:30am 0.0 -6.6 -3.4 78 1.2 S 22 37 12 20 - - 0.8
29/07:00am -0.4 -6.4 -2.8 84 0.8 S 19 33 10 18 - - 0.8
29/06:30am -0.5 -6.6 -2.7 85 0.8 S 20 35 11 19 - - 0.8
29/06:00am -0.6 -6.6 -2.8 85 0.8 S 19 32 10 17 - - 0.8
29/05:30am -0.9 -5.7 -2.8 87 0.6 SSE 13 24 7 13 - - 0.8
29/05:00am -0.9 -5.7 -2.9 86 0.7 SSE 13 28 7 15 - - 0.8
29/04:30am -0.7 -6.3 -2.9 85 0.7 SSE 17 30 9 16 - - 0.8
29/04:00am -0.5 -6.1 -2.9 84 0.8 SSE 17 32 9 17 - - 0.8
29/03:30am -0.3 -6.3 -2.7 84 0.8 SSE 19 28 10 15 - - 0.8
29/03:00am -0.6 -7.5 -2.6 86 0.7 S 24 35 13 19 - - 0.8
29/02:30am -0.7 -7.3 -3.1 84 0.8 SSE 22 37 12 20 - - 0.8
29/02:00am -0.6 -7.5 -3.0 84 0.8 S 24 37 13 20 - - 0.8
29/01:35am -0.3 -8.9 -2.5 85 0.8 S 33 52 18 28 - - 0.8
29/01:30am -0.3 -9.3 -2.7 84 0.8 S 35 52 19 28 - - 0.8
29/01:00am -0.1 -8.7 -2.5 84 0.9 S 33 46 18 25 - - 0.8
29/12:30am -0.1 -8.0 -1.8 88 0.6 S 30 41 16 22 - - 0.8
29/12:00am 0.0 -8.2 -1.3 91 0.5 S 32 43 17 23 - - 0.8
 
Date/Time
EST
Temp
°C
App
Temp
°C
Dew
Point
Rel
Hum
%
Delta-T
°C
Wind Press
QNH
hPa
Press
MSL
hPa
Rain
since 9 am
mm
Dir
 
Spd
km/h
Gust
km/h
Spd
kts
Gust
kts
28/11:30pm 0.2 -7.6 -0.9 92 0.4 S 30 43 16 23 - - 0.8

Other Formats:

Comma delimited format used in spreadsheet applications
http://www.bom.gov.au/fwo/IDV60801/IDV60801.94835.axf

JavaScript Object Notation format (JSON) in row-major order
http://www.bom.gov.au/fwo/IDV60801/IDV60801.94835.json